createdAt,value
2018-12-15T00:00:30.365Z,26.60
2018-12-15T00:05:33.078Z,25.43
2018-12-15T00:10:35.588Z,27.77
2018-12-15T00:15:37.949Z,27.27
2018-12-15T00:20:40.337Z,27.17
2018-12-15T00:25:42.933Z,29.20
2018-12-15T00:30:45.263Z,26.30
2018-12-15T00:35:47.605Z,29.42
2018-12-15T00:40:50.024Z,29.07
2018-12-15T00:45:52.389Z,25.50
2018-12-15T00:50:54.814Z,28.77
2018-12-15T00:55:57.098Z,32.28
2018-12-15T01:00:59.828Z,25.52
2018-12-15T01:06:02.350Z,27.93
2018-12-15T01:11:04.780Z,28.25
2018-12-15T01:16:07.161Z,32.03
2018-12-15T01:21:09.537Z,31.20
2018-12-15T01:26:11.957Z,31.73
2018-12-15T01:31:14.367Z,33.58
2018-12-15T01:36:16.689Z,33.92
2018-12-15T01:41:19.101Z,27.60
2018-12-15T01:46:21.787Z,27.50
2018-12-15T01:51:24.219Z,27.58
2018-12-15T01:56:26.558Z,27.77
2018-12-15T02:01:29.046Z,29.95
2018-12-15T02:06:31.899Z,30.30
2018-12-15T02:11:34.285Z,27.37
2018-12-15T02:16:37.876Z,26.82
2018-12-15T02:21:40.672Z,29.42
2018-12-15T02:26:42.971Z,28.87
2018-12-15T02:31:45.305Z,31.15
2018-12-15T02:36:47.648Z,34.55
2018-12-15T02:41:50.090Z,30.25
2018-12-15T02:46:52.563Z,23.45
2018-12-15T02:51:54.938Z,26.97
2018-12-15T02:56:57.597Z,26.55
2018-12-15T03:01:59.990Z,24.67
2018-12-15T03:07:02.429Z,26.65
2018-12-15T03:12:04.822Z,23.62
2018-12-15T03:17:07.364Z,24.50
2018-12-15T03:22:09.726Z,24.18
2018-12-15T03:27:12.092Z,22.58
2018-12-15T03:32:15.820Z,27.55
2018-12-15T03:37:18.432Z,23.55
2018-12-15T03:42:20.757Z,22.70
2018-12-15T03:47:23.116Z,27.55
2018-12-15T03:52:25.622Z,28.77
2018-12-15T03:57:27.959Z,29.25
2018-12-15T04:02:30.602Z,31.82
2018-12-15T04:07:32.881Z,30.52
2018-12-15T04:12:35.434Z,21.17
2018-12-15T04:17:37.791Z,25.50
2018-12-15T04:22:40.344Z,27.73
2018-12-15T04:27:42.674Z,28.25
2018-12-15T04:32:45.545Z,26.50
2018-12-15T04:37:48.189Z,28.95
2018-12-15T04:42:51.662Z,25.40
2018-12-15T04:47:54.093Z,23.90
2018-12-15T04:52:56.468Z,30.60
2018-12-15T04:57:58.802Z,25.68
2018-12-15T05:03:02.293Z,26.75
2018-12-15T05:08:04.865Z,27.48
2018-12-15T05:13:07.262Z,29.12
2018-12-15T05:18:09.643Z,28.38
2018-12-15T05:23:12.000Z,28.00
2018-12-15T05:28:14.325Z,26.90
2018-12-15T05:33:16.670Z,27.42
2018-12-15T05:38:19.026Z,30.23
2018-12-15T05:43:21.597Z,27.45
2018-12-15T05:48:25.271Z,25.97
2018-12-15T05:53:27.978Z,27.70
2018-12-15T05:58:30.371Z,31.05
2018-12-15T06:03:32.741Z,28.25
2018-12-15T06:08:35.151Z,29.15
2018-12-15T06:13:37.589Z,28.40
2018-12-15T06:18:40.174Z,25.92
2018-12-15T06:23:42.726Z,28.20
2018-12-15T06:28:45.045Z,27.50
2018-12-15T06:33:47.391Z,25.88
2018-12-15T06:38:49.710Z,27.73
2018-12-15T06:43:52.236Z,29.65
2018-12-15T06:48:54.703Z,28.67
2018-12-15T06:53:57.055Z,31.73
2018-12-15T06:58:59.517Z,27.02
2018-12-15T07:04:01.936Z,25.10
2018-12-15T07:09:05.849Z,24.95
2018-12-15T07:14:08.216Z,30.65
2018-12-15T07:19:10.922Z,27.77
2018-12-15T07:24:14.131Z,23.55
2018-12-15T07:29:16.434Z,23.07
2018-12-15T07:34:18.798Z,22.32
2018-12-15T07:39:21.241Z,21.33
2018-12-15T07:44:23.575Z,21.95
2018-12-15T07:49:25.888Z,26.97
2018-12-15T07:54:28.182Z,23.95
2018-12-15T07:59:30.600Z,24.30
2018-12-15T08:04:33.171Z,21.40
2018-12-15T08:09:35.907Z,21.15
2018-12-15T08:14:38.571Z,21.70
2018-12-15T08:19:41.131Z,18.92
2018-12-15T08:24:44.150Z,19.48
2018-12-15T08:29:46.579Z,18.40
2018-12-15T08:34:49.158Z,23.20
2018-12-15T08:39:51.638Z,23.02
2018-12-15T08:44:54.251Z,17.92
2018-12-15T08:49:57.009Z,21.90
2018-12-15T08:54:59.364Z,20.00
2018-12-15T09:00:02.469Z,21.95
2018-12-15T09:05:05.362Z,19.27
2018-12-15T09:10:08.031Z,23.15
2018-12-15T09:15:10.772Z,20.43
2018-12-15T09:20:13.535Z,21.23
2018-12-15T09:25:16.153Z,23.27
2018-12-15T09:30:18.829Z,21.60
2018-12-15T09:35:21.207Z,20.35
2018-12-15T09:40:23.710Z,22.25
2018-12-15T09:45:26.220Z,22.67
2018-12-15T09:50:28.743Z,21.97
2018-12-15T09:55:31.354Z,23.85
2018-12-15T10:00:33.858Z,19.57
2018-12-15T10:05:36.335Z,20.57
2018-12-15T10:10:38.906Z,21.10
2018-12-15T10:15:41.430Z,20.08
2018-12-15T10:20:44.613Z,22.60
2018-12-15T10:25:47.135Z,21.52
2018-12-15T10:30:55.127Z,21.10
2018-12-15T10:35:57.821Z,19.50
2018-12-15T10:41:00.420Z,21.12
2018-12-15T10:46:02.937Z,20.05
2018-12-15T10:51:05.390Z,20.37
2018-12-15T10:56:07.878Z,19.40
2018-12-15T11:01:15.872Z,15.65
2018-12-15T11:06:18.853Z,19.90
2018-12-15T11:11:21.453Z,21.77
2018-12-15T11:16:24.061Z,21.82
2018-12-15T11:21:26.974Z,24.43
2018-12-15T11:26:29.459Z,19.55
2018-12-15T11:31:31.874Z,15.48
2018-12-15T11:36:34.303Z,20.35
2018-12-15T11:41:36.790Z,17.82
2018-12-15T11:46:39.218Z,18.50
2018-12-15T11:51:41.695Z,24.67
2018-12-15T11:56:44.170Z,19.40
2018-12-15T12:01:46.595Z,20.37
2018-12-15T12:06:49.000Z,22.27
2018-12-15T12:11:51.859Z,19.48
2018-12-15T12:16:54.368Z,21.25
2018-12-15T12:21:56.825Z,20.80
2018-12-15T12:27:00.366Z,22.50
2018-12-15T12:32:03.204Z,20.20
2018-12-15T12:37:05.765Z,19.20
2018-12-15T12:42:08.238Z,22.30
2018-12-15T12:47:10.966Z,18.12
2018-12-15T12:52:20.187Z,17.48
2018-12-15T12:57:22.628Z,17.48
2018-12-15T13:02:25.139Z,23.20
2018-12-15T13:07:27.662Z,20.08
2018-12-15T13:12:30.371Z,24.92
2018-12-15T13:17:32.990Z,21.52
2018-12-15T13:22:35.632Z,23.60
2018-12-15T13:27:38.147Z,22.58
2018-12-15T13:32:40.646Z,22.48
2018-12-15T13:37:43.152Z,22.42
2018-12-15T13:42:46.398Z,23.00
2018-12-15T13:47:48.990Z,22.80
2018-12-15T13:52:51.507Z,19.25
2018-12-15T13:57:54.179Z,23.30
2018-12-15T14:02:56.735Z,23.73
2018-12-15T14:07:59.429Z,23.85
2018-12-15T14:13:01.988Z,23.15
2018-12-15T14:18:04.477Z,23.55
2018-12-15T14:23:07.014Z,22.52
2018-12-15T14:28:09.563Z,22.75
2018-12-15T14:33:12.197Z,22.85
2018-12-15T14:38:14.788Z,24.82
2018-12-15T14:43:17.765Z,19.25
2018-12-15T14:48:20.323Z,23.62
2018-12-15T14:53:22.937Z,21.33
2018-12-15T14:58:25.490Z,27.10
2018-12-15T15:03:28.214Z,21.42
2018-12-15T15:08:30.855Z,23.67
2018-12-15T15:13:34.685Z,27.65
2018-12-15T15:18:38.583Z,22.05
2018-12-15T15:23:41.585Z,20.23
2018-12-15T15:28:44.200Z,23.50
2018-12-15T15:33:46.873Z,20.48
2018-12-15T15:38:49.428Z,29.23
2018-12-15T15:43:51.910Z,26.12
2018-12-15T15:48:54.470Z,23.95
2018-12-15T15:53:57.186Z,27.02
2018-12-15T15:58:59.607Z,22.32
2018-12-15T16:04:02.606Z,20.48
2018-12-15T16:09:08.501Z,25.20
2018-12-15T16:14:11.027Z,24.12
2018-12-15T16:19:13.461Z,19.90
2018-12-15T16:24:16.054Z,30.82
2018-12-15T16:29:18.641Z,23.38
2018-12-15T16:34:21.142Z,23.65
2018-12-15T16:39:23.677Z,20.82
2018-12-15T16:44:26.198Z,22.40
2018-12-15T16:49:28.690Z,21.17
2018-12-15T16:54:31.151Z,22.80
2018-12-15T16:59:33.646Z,21.62
2018-12-15T17:04:36.108Z,19.02
2018-12-15T17:09:38.633Z,21.95
2018-12-15T17:14:41.094Z,21.52
2018-12-15T17:19:43.548Z,20.05
2018-12-15T17:24:46.027Z,18.60
2018-12-15T17:29:48.495Z,20.05
2018-12-15T17:34:50.940Z,22.13
2018-12-15T17:39:53.403Z,21.37
2018-12-15T17:44:55.818Z,19.48
2018-12-15T17:49:58.619Z,19.48
2018-12-15T17:55:01.365Z,18.48
2018-12-15T18:00:06.175Z,20.10
2018-12-15T18:05:08.993Z,19.40
2018-12-15T18:10:11.769Z,21.42
2018-12-15T18:15:14.478Z,19.20
2018-12-15T18:20:17.084Z,20.95
2018-12-15T18:25:19.616Z,23.55
2018-12-15T18:30:22.125Z,21.33
2018-12-15T18:35:24.753Z,15.75
2018-12-15T18:40:27.299Z,18.30
2018-12-15T18:45:29.601Z,20.95
2018-12-15T18:50:32.480Z,20.68
2018-12-15T18:55:34.906Z,19.65
2018-12-15T19:00:40.627Z,22.35
2018-12-15T19:05:43.058Z,18.95
2018-12-15T19:10:45.969Z,21.85
2018-12-15T19:15:48.646Z,22.30
2018-12-15T19:20:51.070Z,20.12
2018-12-15T19:25:54.077Z,19.92
2018-12-15T19:30:56.401Z,23.00
2018-12-15T19:35:58.928Z,27.90
2018-12-15T19:41:01.308Z,20.92
2018-12-15T19:46:03.785Z,21.33
2018-12-15T19:51:06.309Z,22.85
2018-12-15T19:56:08.890Z,26.42
2018-12-15T20:01:11.412Z,28.85
2018-12-15T20:06:13.940Z,24.65
2018-12-15T20:11:16.581Z,21.17
2018-12-15T20:16:18.981Z,22.40
2018-12-15T20:21:21.705Z,20.48
2018-12-15T20:26:24.250Z,24.87
2018-12-15T20:31:26.633Z,22.75
2018-12-15T20:36:29.099Z,25.80
2018-12-15T20:41:32.904Z,24.25
2018-12-15T20:46:35.501Z,26.52
2018-12-15T20:51:42.747Z,25.05
2018-12-15T20:56:42.474Z,21.60
2018-12-15T21:01:45.166Z,27.37
2018-12-15T21:06:47.604Z,25.75
2018-12-15T21:11:50.799Z,24.18
2018-12-15T21:16:54.111Z,24.52
2018-12-15T21:21:56.734Z,23.25
2018-12-15T21:26:59.263Z,28.90
2018-12-15T21:32:01.969Z,21.75
2018-12-15T21:37:04.462Z,24.10
2018-12-15T21:42:08.176Z,24.70
2018-12-15T21:47:11.523Z,20.45
2018-12-15T21:52:15.387Z,23.32
2018-12-15T21:57:17.769Z,23.12
2018-12-15T22:02:20.262Z,28.90
2018-12-15T22:07:23.257Z,25.20
2018-12-15T22:12:25.941Z,23.40
2018-12-15T22:17:28.453Z,25.82
2018-12-15T22:22:31.158Z,22.60
2018-12-15T22:27:33.828Z,29.02
2018-12-15T22:32:36.419Z,27.70
2018-12-15T22:37:39.826Z,26.12
2018-12-15T22:42:42.180Z,23.98
2018-12-15T22:47:44.880Z,24.75
2018-12-15T22:52:47.321Z,29.72
2018-12-15T22:57:49.744Z,24.47
2018-12-15T23:02:52.130Z,23.42
2018-12-15T23:07:54.768Z,30.77
2018-12-15T23:12:57.782Z,26.23
2018-12-15T23:18:00.294Z,22.30
2018-12-15T23:23:02.719Z,25.82
2018-12-15T23:28:05.338Z,25.35
2018-12-15T23:33:08.238Z,24.23
2018-12-15T23:38:10.924Z,24.02
2018-12-15T23:43:13.319Z,25.77
2018-12-15T23:48:16.339Z,24.37
2018-12-15T23:53:19.145Z,26.80
2018-12-15T23:58:21.672Z,21.33
